createdAt,value
2023-04-26T00:00:48.229Z,100924.88
2023-04-26T00:03:13.361Z,100932.78
2023-04-26T00:05:38.194Z,100929.88
2023-04-26T00:08:01.855Z,100937.94
2023-04-26T00:10:26.838Z,100933.16
2023-04-26T00:12:50.533Z,100926.53
2023-04-26T00:15:14.136Z,100933.41
2023-04-26T00:17:37.915Z,100922.56
2023-04-26T00:20:01.568Z,100930.41
2023-04-26T00:22:25.482Z,100927.03
2023-04-26T00:24:49.083Z,100932.38
2023-04-26T00:27:13.960Z,100932.19
2023-04-26T00:29:38.318Z,100933.13
2023-04-26T00:32:01.899Z,100934.06
2023-04-26T00:34:25.538Z,100930.97
2023-04-26T00:36:49.193Z,100937.97
2023-04-26T00:39:12.919Z,100931.41
2023-04-26T00:41:36.705Z,100937.88
2023-04-26T00:44:01.672Z,100936.72
2023-04-26T00:46:25.434Z,100935.69
2023-04-26T00:48:49.310Z,100935.44
2023-04-26T00:51:14.164Z,100941.63
2023-04-26T00:53:38.263Z,100932.69
2023-04-26T00:56:02.057Z,100941.31
2023-04-26T00:58:26.850Z,100930.63
2023-04-26T01:00:51.831Z,100939.41
2023-04-26T01:03:15.711Z,100932.97
2023-04-26T01:05:39.826Z,100938.53
2023-04-26T01:08:04.826Z,100944.88
2023-04-26T01:10:29.890Z,100933.75
2023-04-26T01:12:54.684Z,100946.47
2023-04-26T01:15:18.236Z,100945.69
2023-04-26T01:17:44.439Z,100949.16
2023-04-26T01:20:12.097Z,100947.16
2023-04-26T01:22:37.433Z,100951.25
2023-04-26T01:25:03.694Z,100951.59
2023-04-26T01:27:29.740Z,100948.88
2023-04-26T01:29:53.286Z,100958.97
2023-04-26T01:32:16.949Z,100950.53
2023-04-26T01:34:40.606Z,100956.50
2023-04-26T01:37:04.246Z,100955.38
2023-04-26T01:39:29.203Z,100955.94
2023-04-26T01:41:52.985Z,100962.50
2023-04-26T01:44:16.739Z,100967.13
2023-04-26T01:46:40.572Z,100961.81
2023-04-26T01:49:04.296Z,100971.97
2023-04-26T01:51:28.089Z,100972.06
2023-04-26T01:53:51.699Z,100967.59
2023-04-26T01:56:18.224Z,100968.22
2023-04-26T01:58:41.776Z,100973.66
2023-04-26T02:01:08.571Z,100972.44
2023-04-26T02:03:33.836Z,100963.22
2023-04-26T02:05:57.589Z,100962.03
2023-04-26T02:08:21.174Z,100979.06
2023-04-26T02:10:44.794Z,100977.47
2023-04-26T02:13:10.887Z,100973.63
2023-04-26T02:15:34.471Z,100968.06
2023-04-26T02:17:58.093Z,100971.28
2023-04-26T02:20:22.219Z,100969.31
2023-04-26T02:22:46.076Z,100969.56
2023-04-26T02:25:12.463Z,100973.56
2023-04-26T02:27:36.006Z,100968.25
2023-04-26T02:30:01.348Z,100965.25
2023-04-26T02:32:25.544Z,100969.94
2023-04-26T02:34:49.682Z,100968.06
2023-04-26T02:37:13.260Z,100967.28
2023-04-26T02:39:36.896Z,100969.63
2023-04-26T02:42:00.602Z,100960.63
2023-04-26T02:44:24.373Z,100970.25
2023-04-26T02:46:49.387Z,100972.38
2023-04-26T02:49:13.030Z,100970.41
2023-04-26T02:51:36.618Z,100969.72
2023-04-26T02:54:00.234Z,100968.22
2023-04-26T02:56:23.816Z,100965.34
2023-04-26T02:58:47.964Z,100970.88
2023-04-26T03:01:13.876Z,100970.25
2023-04-26T03:03:40.522Z,100973.53
2023-04-26T03:06:04.251Z,100974.59
2023-04-26T03:08:27.940Z,100969.28
2023-04-26T03:10:51.492Z,100966.19
2023-04-26T03:13:15.257Z,100976.50
2023-04-26T03:15:38.999Z,100977.44
2023-04-26T03:18:02.679Z,100968.53
2023-04-26T03:20:27.779Z,100973.63
2023-04-26T03:22:51.783Z,100963.66
2023-04-26T03:25:16.253Z,100967.88
2023-04-26T03:27:40.193Z,100969.28
2023-04-26T03:30:04.433Z,100975.84
2023-04-26T03:32:29.206Z,100972.47
2023-04-26T03:34:52.779Z,100976.03
2023-04-26T03:37:17.819Z,100989.53
2023-04-26T03:39:46.156Z,100986.03
2023-04-26T03:42:10.628Z,100989.59
2023-04-26T03:44:34.344Z,100987.16
2023-04-26T03:46:57.938Z,100986.88
2023-04-26T03:49:21.551Z,100990.66
2023-04-26T03:51:45.138Z,100997.50
2023-04-26T03:54:10.062Z,100983.59
2023-04-26T03:56:33.651Z,100987.44
2023-04-26T03:58:57.815Z,100987.88
2023-04-26T04:01:23.807Z,100994.78
2023-04-26T04:03:48.371Z,100994.75
2023-04-26T04:06:12.619Z,100991.16
2023-04-26T04:08:36.267Z,100999.94
2023-04-26T04:11:01.709Z,100995.84
2023-04-26T04:13:25.891Z,101003.63
2023-04-26T04:15:49.577Z,100995.84
2023-04-26T04:18:13.476Z,101001.97
2023-04-26T04:20:37.437Z,101000.25
2023-04-26T04:23:02.256Z,101001.59
2023-04-26T04:25:26.450Z,101004.00
2023-04-26T04:27:53.367Z,101011.19
2023-04-26T04:30:17.440Z,101005.16
2023-04-26T04:32:44.459Z,101014.47
2023-04-26T04:35:09.571Z,101010.56
2023-04-26T04:37:33.664Z,101018.72
2023-04-26T04:39:57.719Z,101020.09
2023-04-26T04:42:21.580Z,101013.56
2023-04-26T04:44:46.960Z,101009.25
2023-04-26T04:47:10.600Z,101007.63
2023-04-26T04:49:34.492Z,101016.66
2023-04-26T04:51:58.331Z,101020.56
2023-04-26T04:54:22.270Z,101022.94
2023-04-26T04:56:47.519Z,101022.88
2023-04-26T04:59:13.312Z,101026.72
2023-04-26T05:01:39.013Z,101026.88
2023-04-26T05:04:08.053Z,101032.03
2023-04-26T05:06:33.255Z,101034.44
2023-04-26T05:08:57.534Z,101037.34
2023-04-26T05:11:21.488Z,101032.59
2023-04-26T05:13:45.252Z,101038.91
2023-04-26T05:16:09.256Z,101038.75
2023-04-26T05:18:35.549Z,101053.00
2023-04-26T05:20:59.581Z,101047.81
2023-04-26T05:23:23.865Z,101041.69
2023-04-26T05:25:47.396Z,101052.66
2023-04-26T05:28:34.359Z,101050.06
2023-04-26T05:31:20.155Z,101059.38
2023-04-26T05:33:58.268Z,101049.13
2023-04-26T05:36:29.986Z,101065.91
2023-04-26T05:38:54.487Z,101059.75
2023-04-26T05:41:18.061Z,101067.00
2023-04-26T05:43:41.758Z,101061.00
2023-04-26T05:46:05.412Z,101057.84
2023-04-26T05:48:29.862Z,101062.47
2023-04-26T05:50:55.004Z,101066.34
2023-04-26T05:53:19.274Z,101067.53
2023-04-26T05:55:43.373Z,101067.25
2023-04-26T05:58:07.623Z,101067.72
2023-04-26T06:00:31.834Z,101071.97
2023-04-26T06:02:55.700Z,101070.56
2023-04-26T06:05:20.271Z,101067.06
2023-04-26T06:07:46.508Z,101074.34
2023-04-26T06:10:11.856Z,101070.53
2023-04-26T06:12:36.567Z,101069.84
2023-04-26T06:15:00.261Z,101078.63
2023-04-26T06:17:26.526Z,101078.94
2023-04-26T06:19:50.156Z,101073.41
2023-04-26T06:22:13.776Z,101068.50
2023-04-26T06:24:38.764Z,101075.56
2023-04-26T06:27:02.428Z,101076.53
2023-04-26T06:29:26.519Z,101073.94
2023-04-26T06:31:50.788Z,101078.59
2023-04-26T06:34:16.822Z,101078.91
2023-04-26T06:36:40.783Z,101080.78
2023-04-26T06:39:04.580Z,101084.16
2023-04-26T06:41:31.267Z,101088.81
2023-04-26T06:43:55.270Z,101090.38
2023-04-26T06:46:19.819Z,101087.38
2023-04-26T06:48:49.155Z,101074.50
2023-04-26T06:51:13.098Z,101085.22
2023-04-26T06:53:36.921Z,101082.72
2023-04-26T06:56:00.618Z,101087.44
2023-04-26T06:58:25.674Z,101079.56
2023-04-26T07:00:49.356Z,101081.72
2023-04-26T07:03:13.289Z,101075.63
2023-04-26T07:05:38.138Z,101087.38
2023-04-26T07:08:01.933Z,101085.16
2023-04-26T07:10:28.064Z,101074.03
2023-04-26T07:12:51.813Z,101086.13
2023-04-26T07:15:16.919Z,101087.44
2023-04-26T07:17:40.510Z,101092.03
2023-04-26T07:20:04.652Z,101090.78
2023-04-26T07:22:29.270Z,101091.22
2023-04-26T07:24:52.897Z,101093.28
2023-04-26T07:27:16.452Z,101095.59
2023-04-26T07:29:40.686Z,101089.44
2023-04-26T07:32:06.729Z,101102.94
2023-04-26T07:34:30.552Z,101087.63
2023-04-26T07:36:54.470Z,101095.81
2023-04-26T07:39:18.062Z,101094.28
2023-04-26T07:41:43.858Z,101091.75
2023-04-26T07:44:07.948Z,101094.28
2023-04-26T07:46:31.499Z,101092.84
2023-04-26T07:48:56.624Z,101097.75
2023-04-26T07:51:20.297Z,101099.59
2023-04-26T07:53:43.962Z,101101.59
2023-04-26T07:56:09.559Z,101096.00
2023-04-26T07:58:33.958Z,101108.94
2023-04-26T08:00:57.747Z,101105.13
2023-04-26T08:03:21.534Z,101104.47
2023-04-26T08:05:46.713Z,101106.47
2023-04-26T08:08:10.993Z,101101.47
2023-04-26T08:10:35.144Z,101110.44
2023-04-26T08:13:03.075Z,101107.94
2023-04-26T08:15:26.651Z,101103.47
2023-04-26T08:17:53.221Z,101121.06
2023-04-26T08:20:16.977Z,101113.72
2023-04-26T08:22:41.970Z,101122.59
2023-04-26T08:25:06.765Z,101116.00
2023-04-26T08:27:30.321Z,101114.06
2023-04-26T08:29:53.955Z,101110.56
2023-04-26T08:32:17.494Z,101113.09
2023-04-26T08:34:41.160Z,101113.72
2023-04-26T08:37:05.430Z,101124.59
2023-04-26T08:39:30.465Z,101129.19
2023-04-26T08:41:56.303Z,101132.38
2023-04-26T08:44:24.916Z,101132.69
2023-04-26T08:46:56.801Z,101139.28
2023-04-26T08:49:33.693Z,101123.41
2023-04-26T08:51:59.465Z,101122.88
2023-04-26T08:54:23.854Z,101126.88
2023-04-26T08:56:49.265Z,101133.91
2023-04-26T08:59:14.883Z,101129.34
2023-04-26T09:01:42.088Z,101129.22
2023-04-26T09:04:06.424Z,101135.25
2023-04-26T09:06:31.273Z,101126.34
2023-04-26T09:08:56.549Z,101129.53
2023-04-26T09:11:20.168Z,101134.50
2023-04-26T09:13:45.110Z,101130.50
2023-04-26T09:16:10.096Z,101141.22
2023-04-26T09:18:34.274Z,101138.25
2023-04-26T09:21:06.921Z,101128.06
2023-04-26T09:23:30.554Z,101125.81
2023-04-26T09:25:54.098Z,101133.66
2023-04-26T09:28:22.714Z,101133.03
2023-04-26T09:30:47.893Z,101137.47
2023-04-26T09:33:11.582Z,101132.03
2023-04-26T09:35:37.324Z,101130.75
2023-04-26T09:38:09.035Z,101115.13
2023-04-26T09:40:37.548Z,101117.41
2023-04-26T09:43:03.483Z,101124.16
2023-04-26T09:45:27.952Z,101126.50
2023-04-26T09:47:53.246Z,101126.88
2023-04-26T09:50:28.513Z,101130.88
2023-04-26T09:52:52.076Z,101129.03
2023-04-26T09:55:35.041Z,101131.91
2023-04-26T09:58:00.574Z,101124.53
2023-04-26T10:00:25.633Z,101129.22
2023-04-26T10:02:49.784Z,101129.28
2023-04-26T10:05:14.952Z,101119.09
2023-04-26T10:07:38.721Z,101114.00
2023-04-26T10:10:03.972Z,101122.44
2023-04-26T10:12:28.067Z,101128.47
2023-04-26T10:14:51.593Z,101126.28
2023-04-26T10:17:15.938Z,101128.22
2023-04-26T10:19:44.101Z,101132.81
2023-04-26T10:22:13.900Z,101124.72
2023-04-26T10:24:38.604Z,101131.00
2023-04-26T10:27:04.606Z,101128.84
2023-04-26T10:30:09.276Z,101138.00
2023-04-26T10:32:32.886Z,101137.81
2023-04-26T10:35:12.357Z,101122.28
2023-04-26T10:37:37.660Z,101121.41
2023-04-26T10:40:25.861Z,101128.47
2023-04-26T10:42:49.483Z,101125.50
2023-04-26T10:45:29.807Z,101132.13
2023-04-26T10:48:17.457Z,101133.28
2023-04-26T10:51:09.503Z,101130.66
2023-04-26T10:54:02.222Z,101134.94
2023-04-26T10:56:54.116Z,101140.22
2023-04-26T10:59:39.935Z,101136.66
2023-04-26T11:02:07.581Z,101135.25
2023-04-26T11:04:56.073Z,101125.72
2023-04-26T11:07:39.504Z,101133.16
2023-04-26T11:10:11.303Z,101133.59
2023-04-26T11:12:37.026Z,101125.34
2023-04-26T11:15:03.101Z,101123.63
2023-04-26T11:17:26.900Z,101127.22
2023-04-26T11:19:50.465Z,101124.50
2023-04-26T11:22:14.646Z,101132.50
2023-04-26T11:24:39.005Z,101130.44
2023-04-26T11:27:10.475Z,101127.13
2023-04-26T11:29:34.270Z,101123.69
2023-04-26T11:32:00.556Z,101123.16
2023-04-26T11:34:24.703Z,101130.13
2023-04-26T11:36:48.548Z,101130.69
2023-04-26T11:39:14.222Z,101127.09
2023-04-26T11:41:37.875Z,101127.75
2023-04-26T11:44:02.902Z,101123.59
2023-04-26T11:46:26.973Z,101129.41
2023-04-26T11:48:51.682Z,101123.47
2023-04-26T11:51:15.598Z,101115.31
2023-04-26T11:53:40.685Z,101108.59
2023-04-26T11:56:04.800Z,101119.94
2023-04-26T11:58:28.546Z,101118.59
2023-04-26T12:01:01.779Z,101129.53
2023-04-26T12:03:27.957Z,101136.00
2023-04-26T12:05:56.343Z,101140.56
2023-04-26T12:08:20.306Z,101134.06
2023-04-26T12:10:43.911Z,101139.34
2023-04-26T12:13:07.466Z,101131.53
2023-04-26T12:15:32.905Z,101133.00
2023-04-26T12:18:01.515Z,101128.66
2023-04-26T12:20:33.842Z,101135.72
2023-04-26T12:23:07.616Z,101135.94
2023-04-26T12:25:31.547Z,101150.34
2023-04-26T12:27:55.516Z,101136.47
2023-04-26T12:30:19.700Z,101136.16
2023-04-26T12:33:09.248Z,101140.59
2023-04-26T12:35:40.069Z,101135.00
2023-04-26T12:38:03.624Z,101127.81
2023-04-26T12:40:27.747Z,101130.91
2023-04-26T12:42:52.156Z,101137.84
2023-04-26T12:45:15.830Z,101153.97
2023-04-26T12:47:39.373Z,101133.47
2023-04-26T12:50:05.164Z,101138.06
2023-04-26T12:52:28.729Z,101139.00
2023-04-26T12:54:52.698Z,101131.22
2023-04-26T12:57:16.945Z,101136.69
2023-04-26T12:59:40.557Z,101119.97
2023-04-26T13:02:04.071Z,101127.91
2023-04-26T13:04:27.966Z,101134.69
2023-04-26T13:06:53.682Z,101136.94
2023-04-26T13:09:17.644Z,101136.94
2023-04-26T13:11:41.830Z,101139.69
2023-04-26T13:14:06.880Z,101136.28
2023-04-26T13:16:30.529Z,101132.81
2023-04-26T13:18:54.484Z,101136.78
2023-04-26T13:21:18.046Z,101141.09
2023-04-26T13:23:43.004Z,101144.44
2023-04-26T13:26:06.750Z,101148.63
2023-04-26T13:28:30.346Z,101144.59
2023-04-26T13:30:55.868Z,101150.00
2023-04-26T13:33:21.393Z,101156.03
2023-04-26T13:35:45.173Z,101158.94
2023-04-26T13:38:08.769Z,101147.13
2023-04-26T13:40:33.804Z,101160.63
2023-04-26T13:42:57.406Z,101149.69
2023-04-26T13:45:21.274Z,101151.81
2023-04-26T13:47:44.923Z,101147.44
2023-04-26T13:50:09.486Z,101157.75
2023-04-26T13:52:33.366Z,101151.22
2023-04-26T13:54:57.112Z,101156.59
2023-04-26T13:57:22.776Z,101151.44
2023-04-26T13:59:46.352Z,101152.31
2023-04-26T14:02:10.733Z,101159.41
2023-04-26T14:04:34.645Z,101156.72
2023-04-26T14:06:58.350Z,101164.75
2023-04-26T14:09:21.979Z,101152.63
2023-04-26T14:11:51.589Z,101161.25
2023-04-26T14:14:22.518Z,101170.44
2023-04-26T14:16:46.116Z,101153.06
2023-04-26T14:19:09.679Z,101164.22
2023-04-26T14:21:33.255Z,101159.59
2023-04-26T14:23:57.049Z,101152.47
2023-04-26T14:26:20.581Z,101160.28
2023-04-26T14:28:44.372Z,101158.09
2023-04-26T14:31:09.650Z,101161.38
2023-04-26T14:33:33.639Z,101160.19
2023-04-26T14:35:57.442Z,101154.75
2023-04-26T14:38:21.196Z,101151.00
2023-04-26T14:40:45.150Z,101150.59
2023-04-26T14:43:08.849Z,101143.84
2023-04-26T14:45:44.093Z,101155.72
2023-04-26T14:48:09.965Z,101144.50
2023-04-26T14:50:33.571Z,101153.22
2023-04-26T14:52:57.235Z,101152.09
2023-04-26T14:55:22.507Z,101150.38
2023-04-26T14:57:46.200Z,101146.75
2023-04-26T15:00:15.276Z,101137.28
2023-04-26T15:02:39.011Z,101154.78
2023-04-26T15:05:04.445Z,101151.09
2023-04-26T15:07:32.355Z,101145.78
2023-04-26T15:09:56.602Z,101153.06
2023-04-26T15:12:20.162Z,101153.53
2023-04-26T15:14:43.705Z,101152.16
2023-04-26T15:17:07.706Z,101145.47
2023-04-26T15:19:32.502Z,101152.47
2023-04-26T15:21:57.508Z,101156.31
2023-04-26T15:24:21.061Z,101158.41
2023-04-26T15:26:44.605Z,101156.91
2023-04-26T15:29:08.477Z,101154.53
2023-04-26T15:31:32.060Z,101165.16
2023-04-26T15:33:56.872Z,101162.22
2023-04-26T15:36:20.641Z,101162.13
2023-04-26T15:38:47.744Z,101164.34
2023-04-26T15:41:11.336Z,101160.63
2023-04-26T15:43:34.893Z,101167.59
2023-04-26T15:45:58.633Z,101174.78
2023-04-26T15:48:22.179Z,101172.13
2023-04-26T15:50:46.288Z,101174.88
2023-04-26T15:53:09.915Z,101177.81
2023-04-26T15:55:35.360Z,101183.94
2023-04-26T15:57:58.895Z,101176.44
2023-04-26T16:00:22.722Z,101180.84
2023-04-26T16:02:46.352Z,101186.59
2023-04-26T16:05:10.549Z,101196.16
2023-04-26T16:07:34.148Z,101199.06
2023-04-26T16:09:57.752Z,101197.88
2023-04-26T16:12:22.690Z,101183.81
2023-04-26T16:14:46.367Z,101190.63
2023-04-26T16:17:10.044Z,101189.44
2023-04-26T16:19:33.618Z,101191.63
2023-04-26T16:21:57.177Z,101188.19
2023-04-26T16:24:21.564Z,101185.69
2023-04-26T16:26:45.595Z,101180.84
2023-04-26T16:29:10.602Z,101187.47
2023-04-26T16:31:34.650Z,101178.66
2023-04-26T16:33:58.304Z,101171.94
2023-04-26T16:36:21.922Z,101173.28
2023-04-26T16:38:45.673Z,101170.34
2023-04-26T16:41:09.257Z,101176.34
2023-04-26T16:43:33.802Z,101177.81
2023-04-26T16:46:04.089Z,101175.97
2023-04-26T16:48:27.878Z,101172.69
2023-04-26T16:50:51.416Z,101184.59
2023-04-26T16:53:15.126Z,101178.69
2023-04-26T16:55:38.643Z,101181.63
2023-04-26T16:58:02.262Z,101180.25
2023-04-26T17:00:26.061Z,101181.34
2023-04-26T17:02:52.089Z,101183.06
2023-04-26T17:05:16.049Z,101185.16
2023-04-26T17:07:39.666Z,101187.53
2023-04-26T17:10:03.953Z,101186.53
2023-04-26T17:12:27.665Z,101181.91
2023-04-26T17:14:51.195Z,101184.66
2023-04-26T17:17:14.854Z,101188.47
2023-04-26T17:19:39.782Z,101180.97
2023-04-26T17:22:03.418Z,101188.22
2023-04-26T17:24:26.954Z,101189.44
2023-04-26T17:26:51.098Z,101193.75
2023-04-26T17:29:14.683Z,101195.44
2023-04-26T17:31:38.704Z,101200.59
2023-04-26T17:34:04.702Z,101207.28
2023-04-26T17:36:30.066Z,101207.78
2023-04-26T17:38:53.721Z,101209.63
2023-04-26T17:41:17.963Z,101200.94
2023-04-26T17:43:41.711Z,101211.72
2023-04-26T17:46:05.493Z,101215.84
2023-04-26T17:48:29.194Z,101213.81
2023-04-26T17:50:52.955Z,101218.00
2023-04-26T17:53:18.355Z,101216.63
2023-04-26T17:55:42.112Z,101222.13
2023-04-26T17:58:05.762Z,101215.41
2023-04-26T18:00:29.557Z,101226.25
2023-04-26T18:02:53.985Z,101219.19
2023-04-26T18:05:18.390Z,101223.34
2023-04-26T18:07:42.031Z,101229.91
2023-04-26T18:10:08.700Z,101222.75
2023-04-26T18:12:32.258Z,101236.00
2023-04-26T18:14:56.438Z,101235.56
2023-04-26T18:17:20.054Z,101238.88
2023-04-26T18:19:44.133Z,101240.59
2023-04-26T18:22:07.724Z,101240.28
2023-04-26T18:24:31.343Z,101237.47
2023-04-26T18:26:56.293Z,101250.16
2023-04-26T18:29:19.931Z,101254.97
2023-04-26T18:31:43.790Z,101248.44
2023-04-26T18:34:07.959Z,101255.31
2023-04-26T18:36:32.210Z,101254.88
2023-04-26T18:38:55.760Z,101256.78
2023-04-26T18:41:19.314Z,101254.53
2023-04-26T18:43:44.297Z,101264.66
2023-04-26T18:46:08.131Z,101273.31
2023-04-26T18:48:31.957Z,101266.19
2023-04-26T18:50:56.447Z,101277.25
2023-04-26T18:53:22.190Z,101277.53
2023-04-26T18:55:46.083Z,101281.84
2023-04-26T18:58:10.401Z,101289.63
2023-04-26T19:00:35.377Z,101288.88
2023-04-26T19:02:59.164Z,101290.56
2023-04-26T19:05:22.967Z,101288.53
2023-04-26T19:07:46.689Z,101289.50
2023-04-26T19:10:11.551Z,101292.78
2023-04-26T19:12:35.181Z,101289.19
2023-04-26T19:14:58.700Z,101296.72
2023-04-26T19:17:24.214Z,101299.91
2023-04-26T19:19:47.905Z,101294.38
2023-04-26T19:22:11.742Z,101298.53
2023-04-26T19:24:35.275Z,101297.69
2023-04-26T19:26:58.973Z,101297.31
2023-04-26T19:29:22.501Z,101296.16
2023-04-26T19:31:46.217Z,101299.03
2023-04-26T19:34:12.697Z,101295.88
2023-04-26T19:36:37.174Z,101299.91
2023-04-26T19:39:00.772Z,101302.78
2023-04-26T19:41:25.056Z,101298.38
2023-04-26T19:43:48.624Z,101301.72
2023-04-26T19:46:13.629Z,101298.47
2023-04-26T19:48:37.174Z,101303.00
2023-04-26T19:51:02.144Z,101303.38
2023-04-26T19:53:25.660Z,101304.22
2023-04-26T19:55:49.333Z,101307.19
2023-04-26T19:58:12.956Z,101305.75
2023-04-26T20:00:36.841Z,101311.31
2023-04-26T20:03:00.543Z,101308.16
2023-04-26T20:05:24.219Z,101313.88
2023-04-26T20:07:49.174Z,101321.81
2023-04-26T20:10:13.185Z,101321.25
2023-04-26T20:12:37.035Z,101314.66
2023-04-26T20:15:00.964Z,101315.78
2023-04-26T20:17:24.498Z,101324.47
2023-04-26T20:19:48.993Z,101323.69
2023-04-26T20:22:12.512Z,101317.09
2023-04-26T20:24:37.458Z,101313.47
2023-04-26T20:27:01.961Z,101310.03
2023-04-26T20:29:25.779Z,101322.59
2023-04-26T20:31:49.496Z,101326.44
2023-04-26T20:34:13.249Z,101326.44
2023-04-26T20:36:36.793Z,101322.91
2023-04-26T20:39:00.719Z,101327.28
2023-04-26T20:41:27.029Z,101330.94
2023-04-26T20:43:52.825Z,101333.69
2023-04-26T20:46:16.390Z,101326.19
2023-04-26T20:48:40.006Z,101327.47
2023-04-26T20:51:03.615Z,101321.16
2023-04-26T20:53:27.287Z,101323.91
2023-04-26T20:55:53.648Z,101329.50
2023-04-26T20:58:18.651Z,101325.63
2023-04-26T21:00:44.216Z,101332.41
2023-04-26T21:03:08.467Z,101331.22
2023-04-26T21:05:32.221Z,101326.13
2023-04-26T21:07:56.486Z,101332.00
2023-04-26T21:10:20.231Z,101328.13
2023-04-26T21:12:43.842Z,101327.34
2023-04-26T21:15:10.561Z,101332.59
2023-04-26T21:17:35.275Z,101323.25
2023-04-26T21:19:58.871Z,101331.75
2023-04-26T21:22:22.676Z,101327.44
2023-04-26T21:24:46.232Z,101332.97
2023-04-26T21:27:10.008Z,101326.28
2023-04-26T21:29:33.550Z,101329.44
2023-04-26T21:31:58.577Z,101327.63
2023-04-26T21:34:22.257Z,101326.84
2023-04-26T21:36:47.104Z,101328.25
2023-04-26T21:39:11.197Z,101331.22
2023-04-26T21:41:35.234Z,101329.66
2023-04-26T21:43:59.059Z,101329.47
2023-04-26T21:46:22.816Z,101335.06
2023-04-26T21:48:48.136Z,101337.88
2023-04-26T21:51:11.731Z,101338.50
2023-04-26T21:53:35.565Z,101342.28
2023-04-26T21:55:59.847Z,101333.91
2023-04-26T21:58:24.136Z,101337.19
2023-04-26T22:00:48.581Z,101347.50
2023-04-26T22:03:12.410Z,101339.50
2023-04-26T22:05:38.345Z,101336.28
2023-04-26T22:08:01.885Z,101345.03
2023-04-26T22:10:25.858Z,101353.06
2023-04-26T22:12:49.928Z,101355.44
2023-04-26T22:15:13.593Z,101355.59
2023-04-26T22:17:37.226Z,101361.47
2023-04-26T22:20:01.272Z,101360.94
2023-04-26T22:22:26.247Z,101367.19
2023-04-26T22:24:50.499Z,101367.22
2023-04-26T22:27:14.029Z,101366.63
2023-04-26T22:29:38.021Z,101371.78
2023-04-26T22:32:01.692Z,101368.22
2023-04-26T22:34:25.395Z,101377.75
2023-04-26T22:36:48.971Z,101376.13
2023-04-26T22:39:14.300Z,101381.72
2023-04-26T22:41:37.908Z,101383.38
2023-04-26T22:44:01.584Z,101388.97
2023-04-26T22:46:25.248Z,101388.56
2023-04-26T22:48:49.117Z,101386.84
2023-04-26T22:51:12.623Z,101389.34
2023-04-26T22:53:36.238Z,101386.66
2023-04-26T22:56:01.165Z,101389.81
2023-04-26T22:58:24.732Z,101388.19
2023-04-26T23:00:48.355Z,101380.59
2023-04-26T23:03:12.143Z,101386.50
2023-04-26T23:05:35.775Z,101387.41
2023-04-26T23:07:59.428Z,101381.94
2023-04-26T23:10:23.532Z,101393.03
2023-04-26T23:12:49.171Z,101395.38
2023-04-26T23:15:13.370Z,101399.41
2023-04-26T23:17:37.132Z,101391.75
2023-04-26T23:20:00.969Z,101401.75
2023-04-26T23:22:24.568Z,101403.47
2023-04-26T23:24:48.206Z,101409.06
2023-04-26T23:27:11.838Z,101409.41
2023-04-26T23:29:36.805Z,101400.94
2023-04-26T23:32:00.437Z,101409.16
2023-04-26T23:34:23.964Z,101403.72
2023-04-26T23:36:47.602Z,101406.66
2023-04-26T23:39:11.492Z,101399.88
2023-04-26T23:41:35.331Z,101403.47
2023-04-26T23:43:58.894Z,101404.47
2023-04-26T23:46:23.928Z,101400.25
2023-04-26T23:48:47.502Z,101398.25
2023-04-26T23:51:11.095Z,101395.69
2023-04-26T23:53:34.628Z,101396.63
2023-04-26T23:55:58.304Z,101396.16
2023-04-26T23:58:21.986Z,101397.56
